createdAt,value
2023-05-17T00:00:31.758Z,95611
2023-05-17T00:01:41.349Z,95611
2023-05-17T00:02:51.044Z,95613
2023-05-17T00:04:00.687Z,95613
2023-05-17T00:05:10.312Z,95615
2023-05-17T00:06:20.092Z,95613
2023-05-17T00:07:29.609Z,95619
2023-05-17T00:08:39.217Z,95622
2023-05-17T00:09:48.836Z,95622
2023-05-17T00:10:58.456Z,95621
2023-05-17T00:12:08.217Z,95624
2023-05-17T00:13:17.833Z,95626
2023-05-17T00:14:27.456Z,95620
2023-05-17T00:15:37.198Z,95627
2023-05-17T00:16:46.867Z,95629
2023-05-17T00:17:56.542Z,95627
2023-05-17T00:19:06.222Z,95628
2023-05-17T00:20:15.764Z,95629
2023-05-17T00:21:25.617Z,95632
2023-05-17T00:22:35.137Z,95629
2023-05-17T00:23:44.754Z,95631
2023-05-17T00:24:54.376Z,95637
2023-05-17T00:26:04.044Z,95639
2023-05-17T00:27:13.680Z,95643
2023-05-17T00:28:23.308Z,95637
2023-05-17T00:29:32.982Z,95637
2023-05-17T00:30:42.612Z,95642
2023-05-17T00:31:52.236Z,95637
2023-05-17T00:33:01.902Z,95637
2023-05-17T00:34:11.497Z,95641
2023-05-17T00:35:21.315Z,95643
2023-05-17T00:36:30.966Z,95643
2023-05-17T00:37:40.607Z,95646
2023-05-17T00:38:50.267Z,95653
2023-05-17T00:39:59.929Z,95648
2023-05-17T00:41:09.549Z,95648
2023-05-17T00:42:19.167Z,95643
2023-05-17T00:43:28.804Z,95646
2023-05-17T00:44:38.475Z,95649
2023-05-17T00:45:48.082Z,95651
2023-05-17T00:46:57.704Z,95648
2023-05-17T00:48:07.441Z,95646
2023-05-17T00:49:16.999Z,95651
2023-05-17T00:50:26.633Z,95645
2023-05-17T00:51:36.340Z,95648
2023-05-17T00:52:45.885Z,95647
2023-05-17T00:53:55.563Z,95648
2023-05-17T00:55:05.222Z,95649
2023-05-17T00:56:14.809Z,95647
2023-05-17T00:57:24.430Z,95655
2023-05-17T00:58:34.113Z,95651
2023-05-17T00:59:43.723Z,95650
2023-05-17T01:00:53.341Z,95654
2023-05-17T01:02:02.962Z,95656
2023-05-17T01:03:12.685Z,95652
2023-05-17T01:04:22.279Z,95654
2023-05-17T01:05:31.882Z,95654
2023-05-17T01:06:41.629Z,95652
2023-05-17T01:07:51.166Z,95656
2023-05-17T01:09:00.800Z,95654
2023-05-17T01:10:10.425Z,95651
2023-05-17T01:11:20.080Z,95655
2023-05-17T01:12:29.733Z,95657
2023-05-17T01:13:39.352Z,95659
2023-05-17T01:14:49.036Z,95656
2023-05-17T01:15:59.633Z,95659
2023-05-17T01:17:09.309Z,95659
2023-05-17T01:18:26.099Z,95653
2023-05-17T01:19:35.778Z,95658
2023-05-17T01:20:45.499Z,95654
2023-05-17T01:21:55.439Z,95654
2023-05-17T01:23:04.961Z,95658
2023-05-17T01:24:14.670Z,95663
2023-05-17T01:25:24.390Z,95658
2023-05-17T01:26:33.111Z,95664
2023-05-17T01:27:42.820Z,95658
2023-05-17T01:28:52.553Z,95663
2023-05-17T01:30:02.260Z,95663
2023-05-17T01:31:11.981Z,95665
2023-05-17T01:32:21.704Z,95666
2023-05-17T01:33:31.430Z,95667
2023-05-17T01:34:41.113Z,95670
2023-05-17T01:35:50.906Z,95665
2023-05-17T01:37:00.699Z,95664
2023-05-17T01:38:10.291Z,95671
2023-05-17T01:39:20.005Z,95670
2023-05-17T01:40:29.746Z,95671
2023-05-17T01:41:39.483Z,95673
2023-05-17T01:42:49.172Z,95673
2023-05-17T01:43:58.909Z,95670
2023-05-17T01:45:07.767Z,95672
2023-05-17T01:46:17.459Z,95673
2023-05-17T01:47:27.188Z,95675
2023-05-17T01:48:36.906Z,95676
2023-05-17T01:49:46.621Z,95673
2023-05-17T01:50:56.331Z,95672
2023-05-17T01:52:06.146Z,95678
2023-05-17T01:53:15.757Z,95674
2023-05-17T01:54:25.523Z,95676
2023-05-17T01:55:34.224Z,95677
2023-05-17T01:56:43.881Z,95675
2023-05-17T01:57:53.591Z,95683
2023-05-17T01:59:03.392Z,95680
2023-05-17T02:00:12.103Z,95681
2023-05-17T02:01:21.808Z,95674
2023-05-17T02:02:31.570Z,95679
2023-05-17T02:03:41.325Z,95683
2023-05-17T02:04:50.992Z,95680
2023-05-17T02:06:00.692Z,95676
2023-05-17T02:07:10.484Z,95676
2023-05-17T02:08:19.129Z,95677
2023-05-17T02:09:27.830Z,95680
2023-05-17T02:10:37.522Z,95683
2023-05-17T02:11:47.229Z,95681
2023-05-17T02:12:56.989Z,95681
2023-05-17T02:14:06.729Z,95686
2023-05-17T02:15:16.399Z,95687
2023-05-17T02:16:25.097Z,95684
2023-05-17T02:17:34.904Z,95688
2023-05-17T02:18:44.743Z,95678
2023-05-17T02:19:54.271Z,95686
2023-05-17T02:21:03.957Z,95684
2023-05-17T02:22:13.870Z,95685
2023-05-17T02:23:23.420Z,95691
2023-05-17T02:24:33.114Z,95693
2023-05-17T02:25:41.809Z,95690
2023-05-17T02:26:51.536Z,95693
2023-05-17T02:28:00.258Z,95694
2023-05-17T02:29:08.936Z,95692
2023-05-17T02:30:18.624Z,95694
2023-05-17T02:31:28.344Z,95696
2023-05-17T02:32:38.095Z,95696
2023-05-17T02:33:47.804Z,95693
2023-05-17T02:34:56.496Z,95694
2023-05-17T02:36:06.206Z,95695
2023-05-17T02:37:14.909Z,95692
2023-05-17T02:38:24.721Z,95693
2023-05-17T02:39:34.504Z,95693
2023-05-17T02:40:44.461Z,95697
2023-05-17T02:41:54.169Z,95693
2023-05-17T02:43:03.868Z,95702
2023-05-17T02:44:13.567Z,95699
2023-05-17T02:45:23.271Z,95695
2023-05-17T02:46:32.976Z,95700
2023-05-17T02:47:42.719Z,95701
2023-05-17T02:48:51.343Z,95707
2023-05-17T02:50:01.128Z,95701
2023-05-17T02:51:10.784Z,95702
2023-05-17T02:52:18.467Z,95709
2023-05-17T02:53:29.412Z,95710
2023-05-17T02:54:38.901Z,95706
2023-05-17T02:55:48.619Z,95704
2023-05-17T02:56:57.320Z,95706
2023-05-17T02:58:06.007Z,95707
2023-05-17T02:59:14.759Z,95708
2023-05-17T03:00:24.452Z,95709
2023-05-17T03:01:34.158Z,95711
2023-05-17T03:02:43.897Z,95714
2023-05-17T03:03:53.693Z,95717
2023-05-17T03:05:02.326Z,95719
2023-05-17T03:06:12.010Z,95719
2023-05-17T03:07:21.735Z,95724
2023-05-17T03:08:30.439Z,95729
2023-05-17T03:09:40.376Z,95731
2023-05-17T03:10:48.921Z,95731
2023-05-17T03:11:57.624Z,95725
2023-05-17T03:13:07.357Z,95725
2023-05-17T03:14:17.084Z,95730
2023-05-17T03:15:26.932Z,95732
2023-05-17T03:16:36.566Z,95734
2023-05-17T03:17:46.452Z,95736
2023-05-17T03:18:56.162Z,95737
2023-05-17T03:20:05.864Z,95743
2023-05-17T03:21:15.532Z,95739
2023-05-17T03:22:25.382Z,95739
2023-05-17T03:23:34.116Z,95743
2023-05-17T03:24:43.932Z,95747
2023-05-17T03:25:53.522Z,95750
2023-05-17T03:27:03.370Z,95750
2023-05-17T03:28:13.041Z,95746
2023-05-17T03:29:21.738Z,95755
2023-05-17T03:30:30.479Z,95751
2023-05-17T03:31:40.148Z,95749
2023-05-17T03:32:50.060Z,95750
2023-05-17T03:33:58.784Z,95751
2023-05-17T03:35:07.454Z,95755
2023-05-17T03:36:17.181Z,95755
2023-05-17T03:37:25.954Z,95756
2023-05-17T03:38:35.658Z,95758
2023-05-17T03:39:44.364Z,95753
2023-05-17T03:40:54.168Z,95761
2023-05-17T03:42:02.780Z,95764
2023-05-17T03:43:11.509Z,95765
2023-05-17T03:44:21.192Z,95769
2023-05-17T03:45:30.938Z,95768
2023-05-17T03:46:40.578Z,95770
2023-05-17T03:47:49.298Z,95771
2023-05-17T03:48:58.991Z,95771
2023-05-17T03:50:08.678Z,95774
2023-05-17T03:51:18.525Z,95777
2023-05-17T03:52:28.233Z,95775
2023-05-17T03:53:37.942Z,95780
2023-05-17T03:54:48.281Z,95781
2023-05-17T03:55:57.509Z,95784
2023-05-17T03:57:07.128Z,95781
2023-05-17T03:58:15.830Z,95787
2023-05-17T03:59:25.551Z,95788
2023-05-17T04:00:33.334Z,95789
2023-05-17T04:01:43.047Z,95793
2023-05-17T04:02:52.884Z,95796
2023-05-17T04:04:02.611Z,95797
2023-05-17T04:05:12.332Z,95800
2023-05-17T04:06:22.011Z,95801
2023-05-17T04:07:31.750Z,95803
2023-05-17T04:08:41.485Z,95808
2023-05-17T04:09:51.226Z,95809
2023-05-17T04:11:00.071Z,95810
2023-05-17T04:12:09.645Z,95811
2023-05-17T04:13:18.314Z,95812
2023-05-17T04:14:28.101Z,95810
2023-05-17T04:15:37.835Z,95824
2023-05-17T04:16:46.604Z,95824
2023-05-17T04:17:56.370Z,95825
2023-05-17T04:19:06.110Z,95826
2023-05-17T04:20:15.788Z,95823
2023-05-17T04:21:25.537Z,95829
2023-05-17T04:22:35.217Z,95825
2023-05-17T04:23:44.983Z,95829
2023-05-17T04:24:54.679Z,95828
2023-05-17T04:26:03.685Z,95834
2023-05-17T04:27:13.180Z,95832
2023-05-17T04:28:22.907Z,95833
2023-05-17T04:29:32.666Z,95833
2023-05-17T04:30:42.379Z,95835
2023-05-17T04:31:52.105Z,95836
2023-05-17T04:33:01.919Z,95836
2023-05-17T04:34:11.609Z,95842
2023-05-17T04:35:21.276Z,95839
2023-05-17T04:36:30.999Z,95840
2023-05-17T04:37:40.836Z,95841
2023-05-17T04:38:50.656Z,95842
2023-05-17T04:40:00.378Z,95845
2023-05-17T04:41:10.258Z,95848
2023-05-17T04:42:19.899Z,95848
2023-05-17T04:43:29.663Z,95847
2023-05-17T04:44:39.405Z,95849
2023-05-17T04:45:49.101Z,95850
2023-05-17T04:46:57.861Z,95849
2023-05-17T04:48:07.781Z,95853
2023-05-17T04:49:17.522Z,95858
2023-05-17T04:50:27.133Z,95854
2023-05-17T04:51:36.853Z,95856
2023-05-17T04:52:45.542Z,95859
2023-05-17T04:53:55.216Z,95859
2023-05-17T04:55:03.878Z,95853
2023-05-17T04:56:13.698Z,95859
2023-05-17T04:57:23.264Z,95861
2023-05-17T04:58:31.934Z,95863
2023-05-17T04:59:40.580Z,95861
2023-05-17T05:00:50.269Z,95862
2023-05-17T05:02:00.011Z,95864
2023-05-17T05:03:09.757Z,95865
2023-05-17T05:04:19.379Z,95867
2023-05-17T05:05:28.225Z,95864
2023-05-17T05:06:37.705Z,95865
2023-05-17T05:07:47.390Z,95864
2023-05-17T05:08:56.012Z,95872
2023-05-17T05:10:04.676Z,95872
2023-05-17T05:11:14.352Z,95867
2023-05-17T05:12:24.234Z,95867
2023-05-17T05:13:32.653Z,95868
2023-05-17T05:14:41.315Z,95866
2023-05-17T05:15:51.011Z,95871
2023-05-17T05:16:58.685Z,95873
2023-05-17T05:18:07.399Z,95875
2023-05-17T05:19:17.064Z,95870
2023-05-17T05:20:26.460Z,95876
2023-05-17T05:21:34.317Z,95873
2023-05-17T05:22:40.986Z,95876
2023-05-17T05:23:50.641Z,95876
2023-05-17T05:25:00.346Z,95881
2023-05-17T05:26:08.995Z,95878
2023-05-17T05:27:17.647Z,95880
2023-05-17T05:28:26.402Z,95877
2023-05-17T05:29:34.983Z,95879
2023-05-17T05:30:44.652Z,95879
2023-05-17T05:31:52.313Z,95884
2023-05-17T05:33:02.053Z,95876
2023-05-17T05:34:11.680Z,95877
2023-05-17T05:35:20.307Z,95878
2023-05-17T05:36:29.955Z,95879
2023-05-17T05:37:38.622Z,95881
2023-05-17T05:38:48.296Z,95881
2023-05-17T05:39:57.939Z,95886
2023-05-17T05:41:05.645Z,95883
2023-05-17T05:42:14.320Z,95886
2023-05-17T05:43:24.017Z,95881
2023-05-17T05:44:31.874Z,95880
2023-05-17T05:45:41.345Z,95880
2023-05-17T05:46:50.027Z,95879
2023-05-17T05:47:58.789Z,95875
2023-05-17T05:49:08.431Z,95883
2023-05-17T05:50:17.077Z,95886
2023-05-17T05:51:26.752Z,95883
2023-05-17T05:52:36.441Z,95887
2023-05-17T05:53:45.117Z,95885
2023-05-17T05:54:53.779Z,95886
2023-05-17T05:56:02.425Z,95885
2023-05-17T05:57:11.116Z,95889
2023-05-17T05:58:20.777Z,95883
2023-05-17T05:59:29.458Z,95882
2023-05-17T06:00:38.308Z,95886
2023-05-17T06:01:47.915Z,95887
2023-05-17T06:02:56.620Z,95884
2023-05-17T06:04:06.224Z,95885
2023-05-17T06:05:14.910Z,95887
2023-05-17T06:06:23.575Z,95884
2023-05-17T06:07:33.368Z,95884
2023-05-17T06:08:42.037Z,95885
2023-05-17T06:09:50.717Z,95889
2023-05-17T06:11:00.393Z,95892
2023-05-17T06:12:08.061Z,95892
2023-05-17T06:13:17.711Z,95898
2023-05-17T06:14:26.375Z,95896
2023-05-17T06:15:35.019Z,95904
2023-05-17T06:16:44.803Z,95901
2023-05-17T06:17:53.450Z,95907
2023-05-17T06:19:03.063Z,95907
2023-05-17T06:20:13.678Z,95908
2023-05-17T06:21:21.374Z,95911
2023-05-17T06:22:31.033Z,95912
2023-05-17T06:23:40.665Z,95912
2023-05-17T06:24:49.320Z,95914
2023-05-17T06:25:59.023Z,95916
2023-05-17T06:27:07.685Z,95915
2023-05-17T06:28:16.342Z,95921
2023-05-17T06:29:26.018Z,95926
2023-05-17T06:30:34.827Z,95928
2023-05-17T06:31:43.484Z,95918
2023-05-17T06:32:52.380Z,95924
2023-05-17T06:34:00.869Z,95925
2023-05-17T06:35:09.515Z,95923
2023-05-17T06:36:17.188Z,95921
2023-05-17T06:37:25.829Z,95924
2023-05-17T06:38:35.495Z,95924
2023-05-17T06:39:47.965Z,95921
2023-05-17T06:40:55.794Z,95923
2023-05-17T06:42:05.618Z,95923
2023-05-17T06:43:14.265Z,95926
2023-05-17T06:44:23.946Z,95931
2023-05-17T06:45:32.596Z,95926
2023-05-17T06:46:42.246Z,95927
2023-05-17T06:47:50.974Z,95929
2023-05-17T06:48:59.769Z,95930
2023-05-17T06:50:09.337Z,95926
2023-05-17T06:51:19.066Z,95925
2023-05-17T06:52:28.695Z,95933
2023-05-17T06:53:38.372Z,95927
2023-05-17T06:54:47.069Z,95930
2023-05-17T06:55:55.720Z,95930
2023-05-17T06:57:04.373Z,95931
2023-05-17T06:58:13.026Z,95934
2023-05-17T06:59:22.725Z,95936
2023-05-17T07:00:30.680Z,95938
2023-05-17T07:01:40.052Z,95940
2023-05-17T07:02:49.735Z,95939
2023-05-17T07:03:59.462Z,95940
2023-05-17T07:05:09.161Z,95941
2023-05-17T07:06:17.688Z,95943
2023-05-17T07:07:26.339Z,95948
2023-05-17T07:08:36.079Z,95953
2023-05-17T07:09:43.729Z,95953
2023-05-17T07:10:52.407Z,95953
2023-05-17T07:12:02.051Z,95955
2023-05-17T07:13:10.739Z,95954
2023-05-17T07:14:21.072Z,95954
2023-05-17T07:15:30.011Z,95952
2023-05-17T07:16:38.381Z,95949
2023-05-17T07:17:47.129Z,95952
2023-05-17T07:18:55.919Z,95953
2023-05-17T07:20:04.526Z,95953
2023-05-17T07:21:13.281Z,95956
2023-05-17T07:22:22.845Z,95953
2023-05-17T07:23:32.512Z,95954
2023-05-17T07:24:41.144Z,95950
2023-05-17T07:25:49.784Z,95954
2023-05-17T07:26:59.692Z,95955
2023-05-17T07:28:07.350Z,95957
2023-05-17T07:29:16.998Z,95967
2023-05-17T07:30:25.685Z,95962
2023-05-17T07:31:35.325Z,95963
2023-05-17T07:32:45.016Z,95963
2023-05-17T07:33:52.661Z,95968
2023-05-17T07:35:01.301Z,95964
2023-05-17T07:36:10.995Z,95962
2023-05-17T07:37:18.662Z,95964
2023-05-17T07:38:26.324Z,95965
2023-05-17T07:39:34.980Z,95968
2023-05-17T07:40:43.704Z,95973
2023-05-17T07:41:54.121Z,95968
2023-05-17T07:43:00.766Z,95966
2023-05-17T07:44:09.416Z,95965
2023-05-17T07:45:19.102Z,95968
2023-05-17T07:46:27.828Z,95962
2023-05-17T07:47:36.507Z,95964
2023-05-17T07:48:45.215Z,95967
2023-05-17T07:49:54.881Z,95963
2023-05-17T07:51:04.551Z,95969
2023-05-17T07:52:13.199Z,95968
2023-05-17T07:53:20.891Z,95969
2023-05-17T07:54:30.544Z,95972
2023-05-17T07:55:38.187Z,95970
2023-05-17T07:56:49.032Z,95971
2023-05-17T07:57:58.232Z,95971
2023-05-17T07:59:08.032Z,95967
2023-05-17T08:00:17.772Z,95970
2023-05-17T08:01:27.430Z,95971
2023-05-17T08:02:36.103Z,95975
2023-05-17T08:03:45.772Z,95975
2023-05-17T08:04:54.507Z,95971
2023-05-17T08:06:03.115Z,95973
2023-05-17T08:07:11.762Z,95976
2023-05-17T08:08:21.409Z,95977
2023-05-17T08:09:31.117Z,95973
2023-05-17T08:10:39.779Z,95976
2023-05-17T08:11:48.449Z,95980
2023-05-17T08:12:58.101Z,95978
2023-05-17T08:14:05.891Z,95976
2023-05-17T08:15:14.528Z,95979
2023-05-17T08:16:23.174Z,95976
2023-05-17T08:17:31.843Z,95978
2023-05-17T08:18:41.622Z,95975
2023-05-17T08:19:50.288Z,95976
2023-05-17T08:20:58.829Z,95977
2023-05-17T08:22:07.480Z,95970
2023-05-17T08:23:15.768Z,95972
2023-05-17T08:24:25.455Z,95976
2023-05-17T08:25:35.209Z,95978
2023-05-17T08:26:43.722Z,95975
2023-05-17T08:27:52.440Z,95974
2023-05-17T08:29:02.111Z,95980
2023-05-17T08:30:14.798Z,95974
2023-05-17T08:31:22.418Z,95979
2023-05-17T08:32:31.116Z,95974
2023-05-17T08:33:40.784Z,95976
2023-05-17T08:34:49.474Z,95979
2023-05-17T08:35:59.140Z,95980
2023-05-17T08:37:08.889Z,95981
2023-05-17T08:38:19.999Z,95984
2023-05-17T08:39:27.131Z,95987
2023-05-17T08:40:34.827Z,95986
2023-05-17T08:41:43.569Z,95986
2023-05-17T08:42:53.242Z,95984
2023-05-17T08:44:01.831Z,95988
2023-05-17T08:45:10.503Z,95982
2023-05-17T08:46:19.197Z,95982
2023-05-17T08:47:27.870Z,95984
2023-05-17T08:48:37.523Z,95987
2023-05-17T08:49:46.980Z,95986
2023-05-17T08:50:54.829Z,95986
2023-05-17T08:52:04.459Z,95984
2023-05-17T08:53:12.131Z,95987
2023-05-17T08:54:20.757Z,95989
2023-05-17T08:55:29.458Z,95991
2023-05-17T08:56:38.140Z,95987
2023-05-17T08:57:47.925Z,95995
2023-05-17T08:58:58.067Z,95993
2023-05-17T09:00:06.240Z,95997
2023-05-17T09:01:15.910Z,96004
2023-05-17T09:02:25.653Z,95998
2023-05-17T09:03:34.362Z,96008
2023-05-17T09:04:42.970Z,96009
2023-05-17T09:05:51.726Z,96008
2023-05-17T09:07:01.292Z,96009
2023-05-17T09:08:08.961Z,96012
2023-05-17T09:09:18.608Z,96015
2023-05-17T09:10:28.509Z,96016
2023-05-17T09:11:36.030Z,96017
2023-05-17T09:12:45.690Z,96020
2023-05-17T09:13:54.561Z,96017
2023-05-17T09:15:03.277Z,96024
2023-05-17T09:16:12.918Z,96020
2023-05-17T09:17:21.571Z,96022
2023-05-17T09:18:30.302Z,96025
2023-05-17T09:19:39.965Z,96014
2023-05-17T09:20:48.579Z,96006
2023-05-17T09:21:58.234Z,96012
2023-05-17T09:23:06.951Z,96012
2023-05-17T09:24:16.627Z,96016
2023-05-17T09:25:27.266Z,96019
2023-05-17T09:26:36.922Z,96018
2023-05-17T09:27:46.578Z,96011
2023-05-17T09:28:56.351Z,96023
2023-05-17T09:30:03.965Z,96016
2023-05-17T09:31:12.616Z,96018
2023-05-17T09:32:21.290Z,96022
2023-05-17T09:33:31.008Z,96020
2023-05-17T09:34:40.595Z,96023
2023-05-17T09:35:49.274Z,96023
2023-05-17T09:36:57.911Z,96022
2023-05-17T09:38:07.638Z,96014
2023-05-17T09:39:17.293Z,96011
2023-05-17T09:40:25.931Z,96017
2023-05-17T09:41:35.651Z,96014
2023-05-17T09:42:45.331Z,96014
2023-05-17T09:43:55.006Z,96017
2023-05-17T09:45:04.682Z,96018
2023-05-17T09:46:13.305Z,96019
2023-05-17T09:47:22.025Z,96017
2023-05-17T09:48:30.787Z,96011
2023-05-17T09:49:40.334Z,96015
2023-05-17T09:50:50.002Z,96009
2023-05-17T09:51:58.680Z,96014
2023-05-17T09:53:08.414Z,96013
2023-05-17T09:54:18.073Z,96014
2023-05-17T09:55:26.848Z,96015
2023-05-17T09:56:36.454Z,96024
2023-05-17T09:57:45.111Z,96025
2023-05-17T09:58:53.828Z,96016
2023-05-17T10:00:03.555Z,96021
2023-05-17T10:01:12.344Z,96019
2023-05-17T10:02:21.943Z,96020
2023-05-17T10:03:31.587Z,96014
2023-05-17T10:04:41.227Z,96014
2023-05-17T10:05:50.861Z,96016
2023-05-17T10:06:59.549Z,96013
2023-05-17T10:08:08.219Z,96016
2023-05-17T10:09:16.876Z,96009
2023-05-17T10:10:25.599Z,96013
2023-05-17T10:11:35.199Z,96011
2023-05-17T10:12:42.836Z,96009
2023-05-17T10:13:52.481Z,96013
2023-05-17T10:15:01.149Z,96009
2023-05-17T10:16:08.776Z,96015
2023-05-17T10:17:17.536Z,96016
2023-05-17T10:18:27.171Z,96016
2023-05-17T10:19:35.798Z,96018
2023-05-17T10:20:45.442Z,96015
2023-05-17T10:21:53.194Z,96015
2023-05-17T10:23:03.786Z,96005
2023-05-17T10:24:12.436Z,96013
2023-05-17T10:25:22.124Z,96007
2023-05-17T10:26:31.768Z,95997
2023-05-17T10:27:41.414Z,95997
2023-05-17T10:28:51.184Z,95995
2023-05-17T10:30:00.903Z,96001
2023-05-17T10:31:09.567Z,95999
2023-05-17T10:32:18.226Z,95999
2023-05-17T10:33:27.935Z,96003
2023-05-17T10:34:36.573Z,96006
2023-05-17T10:35:46.224Z,96002
2023-05-17T10:36:54.864Z,96006
2023-05-17T10:38:02.645Z,96003
2023-05-17T10:39:12.306Z,96005
2023-05-17T10:40:22.013Z,96000
2023-05-17T10:41:31.675Z,96004
2023-05-17T10:42:40.330Z,96004
2023-05-17T10:43:49.017Z,96000
2023-05-17T10:44:58.696Z,95997
2023-05-17T10:46:07.352Z,96003
2023-05-17T10:47:16.016Z,95999
2023-05-17T10:48:24.776Z,95995
2023-05-17T10:49:33.431Z,95994
2023-05-17T10:50:50.574Z,95996
2023-05-17T10:51:53.700Z,95994
2023-05-17T10:53:02.408Z,95993
2023-05-17T10:54:12.133Z,95994
2023-05-17T10:55:20.794Z,95993
2023-05-17T10:56:30.390Z,95999
2023-05-17T10:58:48.756Z,95990
2023-05-17T10:59:58.411Z,95991
2023-05-17T11:01:07.054Z,95990
2023-05-17T11:02:14.698Z,95992
2023-05-17T11:03:24.359Z,95985
2023-05-17T11:04:32.029Z,95983
2023-05-17T11:05:41.703Z,95980
2023-05-17T11:06:51.361Z,95985
2023-05-17T11:07:59.958Z,95987
2023-05-17T11:09:09.615Z,95985
2023-05-17T11:10:17.302Z,95988
2023-05-17T11:11:26.951Z,95981
2023-05-17T11:12:38.346Z,95979
2023-05-17T11:13:46.272Z,95987
2023-05-17T11:14:55.928Z,95984
2023-05-17T11:16:04.619Z,95980
2023-05-17T11:17:14.286Z,95979
2023-05-17T11:18:29.993Z,95979
2023-05-17T11:19:33.801Z,95977
2023-05-17T11:20:42.453Z,95978
2023-05-17T11:21:52.017Z,95977
2023-05-17T11:22:59.697Z,95979
2023-05-17T11:24:08.306Z,95974
2023-05-17T11:25:16.958Z,95973
2023-05-17T11:26:25.650Z,95980
2023-05-17T11:27:35.332Z,95981
2023-05-17T11:28:43.966Z,95978
2023-05-17T11:29:53.610Z,95982
2023-05-17T11:31:03.310Z,95984
2023-05-17T11:32:13.012Z,95975
2023-05-17T11:33:32.664Z,95974
2023-05-17T11:34:33.370Z,95974
2023-05-17T11:35:42.930Z,95971
2023-05-17T11:36:53.637Z,95978
2023-05-17T11:38:02.440Z,95977
2023-05-17T11:39:10.961Z,95981
2023-05-17T11:40:20.679Z,95978
2023-05-17T11:41:28.346Z,95979
2023-05-17T11:42:37.090Z,95977
2023-05-17T11:43:46.742Z,95986
2023-05-17T11:44:55.367Z,95982
2023-05-17T11:46:05.098Z,95986
2023-05-17T11:47:12.754Z,95984
2023-05-17T11:48:22.518Z,95978
2023-05-17T11:49:35.400Z,95974
2023-05-17T11:50:41.726Z,95981
2023-05-17T11:51:50.402Z,95976
2023-05-17T11:52:59.050Z,95971
2023-05-17T11:54:07.715Z,95974
2023-05-17T11:55:17.379Z,95971
2023-05-17T11:56:32.371Z,95975
2023-05-17T11:57:34.639Z,95981
2023-05-17T11:58:44.280Z,95974
2023-05-17T11:59:53.948Z,95971
2023-05-17T12:01:02.596Z,95974
2023-05-17T12:02:11.241Z,95976
2023-05-17T12:03:19.942Z,95970
2023-05-17T12:04:30.652Z,95972
2023-05-17T12:05:38.264Z,95970
2023-05-17T12:06:46.961Z,95973
2023-05-17T12:07:56.601Z,95969
2023-05-17T12:09:04.282Z,95984
2023-05-17T12:10:12.952Z,95975
2023-05-17T12:11:22.617Z,95973
2023-05-17T12:12:32.267Z,95973
2023-05-17T12:13:41.954Z,95978
2023-05-17T12:14:49.595Z,95984
2023-05-17T12:15:59.227Z,95979
2023-05-17T12:17:08.877Z,95986
2023-05-17T12:18:17.723Z,95972
2023-05-17T12:19:27.427Z,95984
2023-05-17T12:20:35.919Z,95983
2023-05-17T12:21:45.562Z,95983
2023-05-17T12:22:55.336Z,95981
2023-05-17T12:24:04.049Z,95980
2023-05-17T12:25:12.696Z,95978
2023-05-17T12:26:22.374Z,95980
2023-05-17T12:27:30.983Z,95976
2023-05-17T12:28:39.705Z,95976
2023-05-17T12:29:49.366Z,95979
2023-05-17T12:30:58.055Z,95980
2023-05-17T12:32:07.710Z,95980
2023-05-17T12:33:16.497Z,95981
2023-05-17T12:34:26.095Z,95984
2023-05-17T12:35:34.720Z,95991
2023-05-17T12:36:43.484Z,95986
2023-05-17T12:37:53.243Z,95980
2023-05-17T12:39:01.949Z,95984
2023-05-17T12:40:10.529Z,95987
2023-05-17T12:41:19.193Z,95987
2023-05-17T12:42:27.900Z,95985
2023-05-17T12:43:37.506Z,95985
2023-05-17T12:44:46.161Z,95981
2023-05-17T12:45:54.832Z,95989
2023-05-17T12:47:04.539Z,95994
2023-05-17T12:48:13.225Z,95986
2023-05-17T12:49:21.840Z,95986
2023-05-17T12:50:30.575Z,95989
2023-05-17T12:51:40.220Z,95991
2023-05-17T12:52:49.918Z,95988
2023-05-17T12:53:58.551Z,95987
2023-05-17T12:55:08.206Z,95991
2023-05-17T12:56:17.895Z,95991
2023-05-17T12:57:25.538Z,95994
2023-05-17T12:58:35.183Z,95990
2023-05-17T12:59:44.807Z,95997
2023-05-17T13:00:54.475Z,95991
2023-05-17T13:02:03.149Z,95993
2023-05-17T13:03:10.870Z,95991
2023-05-17T13:04:19.418Z,95990
2023-05-17T13:05:29.102Z,95982
2023-05-17T13:06:38.780Z,95988
2023-05-17T13:07:48.440Z,95987
2023-05-17T13:08:57.107Z,95984
2023-05-17T13:10:06.932Z,95985
2023-05-17T13:11:16.634Z,95987
2023-05-17T13:12:26.278Z,95982
2023-05-17T13:13:34.984Z,95993
2023-05-17T13:14:46.417Z,95996
2023-05-17T13:15:53.379Z,95987
2023-05-17T13:17:02.143Z,95997
2023-05-17T13:18:11.717Z,95985
2023-05-17T13:19:20.492Z,95994
2023-05-17T13:20:29.351Z,95992
2023-05-17T13:21:36.723Z,95997
2023-05-17T13:22:45.360Z,95990
2023-05-17T13:23:55.104Z,95990
2023-05-17T13:25:03.814Z,95984
2023-05-17T13:26:12.486Z,95983
2023-05-17T13:27:22.135Z,95984
2023-05-17T13:28:30.805Z,95986
2023-05-17T13:29:40.860Z,95987
2023-05-17T13:30:49.270Z,95983
2023-05-17T13:31:58.919Z,95983
2023-05-17T13:33:08.713Z,95984
2023-05-17T13:34:17.265Z,95999
2023-05-17T13:35:25.904Z,95989
2023-05-17T13:36:33.545Z,95988
2023-05-17T13:37:42.268Z,95990
2023-05-17T13:38:51.961Z,95990
2023-05-17T13:40:00.626Z,95984
2023-05-17T13:41:10.288Z,95988
2023-05-17T13:42:19.940Z,95983
2023-05-17T13:43:27.637Z,95989
2023-05-17T13:44:35.267Z,95987
2023-05-17T13:45:43.915Z,95990
2023-05-17T13:46:53.593Z,95990
2023-05-17T13:48:03.331Z,95987
2023-05-17T13:49:12.001Z,95990
2023-05-17T13:50:20.529Z,95983
2023-05-17T13:51:30.226Z,95987
2023-05-17T13:52:37.920Z,95986
2023-05-17T13:53:46.555Z,95986
2023-05-17T13:54:56.226Z,95990
2023-05-17T13:56:05.051Z,95988
2023-05-17T13:57:14.741Z,95985
2023-05-17T13:58:23.430Z,95988
2023-05-17T13:59:32.077Z,95991
2023-05-17T14:00:41.721Z,95988
2023-05-17T14:01:51.400Z,95990
2023-05-17T14:03:00.176Z,95989
2023-05-17T14:04:09.830Z,95994
2023-05-17T14:05:18.410Z,95997
2023-05-17T14:06:28.114Z,95992
2023-05-17T14:07:37.768Z,95990
2023-05-17T14:08:46.407Z,95987
2023-05-17T14:09:56.057Z,95990
2023-05-17T14:11:05.721Z,95993
2023-05-17T14:12:15.395Z,95993
2023-05-17T14:13:24.073Z,95992
2023-05-17T14:14:33.724Z,95983
2023-05-17T14:15:43.385Z,95990
2023-05-17T14:16:53.078Z,95985
2023-05-17T14:18:02.876Z,95980
2023-05-17T14:19:12.468Z,95983
2023-05-17T14:20:21.133Z,95980
2023-05-17T14:21:30.805Z,95978
2023-05-17T14:22:39.444Z,95981
2023-05-17T14:23:48.082Z,95976
2023-05-17T14:24:57.760Z,95986
2023-05-17T14:26:05.423Z,95981
2023-05-17T14:27:14.068Z,95985
2023-05-17T14:28:23.717Z,95983
2023-05-17T14:29:33.356Z,95979
2023-05-17T14:30:43.030Z,95976
2023-05-17T14:31:50.697Z,95975
2023-05-17T14:33:00.354Z,95977
2023-05-17T14:34:10.084Z,95973
2023-05-17T14:35:19.789Z,95983
2023-05-17T14:36:29.435Z,95990
2023-05-17T14:37:37.078Z,95988
2023-05-17T14:38:45.714Z,95982
2023-05-17T14:40:05.732Z,95982
2023-05-17T14:41:06.366Z,95987
2023-05-17T14:42:15.006Z,95997
2023-05-17T14:43:23.662Z,95990
2023-05-17T14:44:33.342Z,95975
2023-05-17T14:45:42.991Z,95975
2023-05-17T14:46:51.622Z,95973
2023-05-17T14:48:01.308Z,95979
2023-05-17T14:49:10.973Z,95979
2023-05-17T14:50:18.640Z,95978
2023-05-17T14:51:27.273Z,95977
2023-05-17T14:52:35.956Z,95984